Time;durP1;ratioP1;P1;durP2;ratioP2;P2;SDS_P1;SDS_P2;PMS_P1;PMS_P2;Temp;Humidity;BMP_temperature;BMP_pressure;BME280_temperature;BME280_humidity;BME280_pressure;Samples;Min_cycle;Max_cycle;Signal;HPM_P1;HPM_P2
2022/09/02 00:01:01;;;;;;;0.50;0.40;;;;;;;9.12;77.70;98911.38;4968002;28;20045;-43
2022/09/02 00:03:29;;;;;;;0.43;0.40;;;;;;;9.05;78.03;98923.78;4969126;28;20046;-45
2022/09/02 00:05:56;;;;;;;2.17;0.30;;;;;;;9.07;78.21;98921.09;4953674;28;20070;-44
2022/09/02 00:08:22;;;;;;;0.30;0.30;;;;;;;9.10;78.17;98921.84;4955059;28;20078;-45
2022/09/02 00:10:48;;;;;;;0.55;0.40;;;;;;;9.09;78.28;98925.31;4953637;28;20062;-44
2022/09/02 00:13:18;;;;;;;0.52;0.40;;;;;;;9.10;77.95;98929.63;4951235;28;20192;-45
2022/09/02 00:15:44;;;;;;;0.40;0.40;;;;;;;9.00;78.09;98909.31;4970105;28;20112;-46
2022/09/02 00:18:11;;;;;;;1.15;0.35;;;;;;;8.98;78.02;98911.09;4972445;28;20141;-47
2022/09/02 00:20:42;;;;;;;0.40;0.30;;;;;;;9.09;78.35;98933.09;4971529;28;20168;-44
2022/09/02 00:23:08;;;;;;;0.52;0.30;;;;;;;9.09;77.76;98930.50;4972277;28;20042;-45
2022/09/02 00:25:35;;;;;;;0.22;0.15;;;;;;;9.13;77.50;98926.88;4971369;28;20129;-47
2022/09/02 00:28:02;;;;;;;1.45;0.30;;;;;;;9.12;77.35;98932.13;4971706;28;20035;-46
2022/09/02 00:30:28;;;;;;;0.45;0.28;;;;;;;8.87;76.98;98901.16;4963745;28;20043;-47
2022/09/02 00:32:54;;;;;;;1.90;0.50;;;;;;;9.06;77.81;98933.22;4971886;28;20637;-44
2022/09/02 00:35:20;;;;;;;6.55;0.40;;;;;;;8.85;77.67;98906.41;4969936;28;20038;-43
2022/09/02 00:37:46;;;;;;;0.30;0.30;;;;;;;9.04;77.54;98936.78;4971693;28;20046;-45
2022/09/02 00:40:13;;;;;;;0.28;0.20;;;;;;;9.01;77.25;98932.56;4968751;28;20054;-50
2022/09/02 00:42:39;;;;;;;0.60;0.25;;;;;;;9.00;77.30;98933.47;4969891;28;20047;-44
2022/09/02 00:45:06;;;;;;;0.82;0.20;;;;;;;8.90;77.31;98921.75;4954225;28;20042;-46
2022/09/02 00:47:33;;;;;;;0.50;0.25;;;;;;;8.88;76.84;98929.63;4970469;28;20042;-45
2022/09/02 00:49:59;;;;;;;0.38;0.20;;;;;;;8.89;76.76;98938.25;4953556;28;20043;-50
2022/09/02 00:52:36;;;;;;;0.45;0.30;;;;;;;8.84;76.54;98922.88;4978391;28;20027;-50
2022/09/02 00:55:13;;;;;;;3.00;0.30;;;;;;;9.08;76.45;98935.75;4953830;28;20046;-46
2022/09/02 00:57:46;;;;;;;0.50;0.30;;;;;;;9.12;75.36;98937.31;4970069;28;20062;-46
2022/09/02 01:00:23;;;;;;;0.15;0.10;;;;;;;9.04;75.22;98937.63;4970061;28;20043;-44
2022/09/02 01:02:55;;;;;;;0.10;0.10;;;;;;;9.12;75.10;98943.34;4969254;28;20112;-47
2022/09/02 01:05:23;;;;;;;0.30;0.30;;;;;;;9.22;74.60;98938.63;4970712;28;20134;-46
2022/09/02 01:07:50;;;;;;;0.40;0.20;;;;;;;9.11;74.24;98907.09;4938765;28;20182;-45
2022/09/02 01:10:19;;;;;;;1.05;0.10;;;;;;;9.24;73.86;98929.88;4962749;28;20047;-52
2022/09/02 01:12:45;;;;;;;1.00;0.40;;;;;;;9.18;73.58;98930.13;4969350;28;20043;-43
2022/09/02 01:15:12;;;;;;;0.10;0.10;;;;;;;9.23;73.56;98927.34;4970377;28;20066;-42
2022/09/02 01:17:45;;;;;;;0.20;0.20;;;;;;;9.14;74.08;98931.16;4952763;28;20085;-44
2022/09/02 01:20:14;;;;;;;1.48;0.30;;;;;;;9.16;73.99;98933.72;4969099;28;20047;-46
2022/09/02 01:22:41;;;;;;;0.68;0.20;;;;;;;9.10;73.71;98941.72;4970087;28;20046;-48
2022/09/02 01:25:13;;;;;;;0.30;0.22;;;;;;;9.11;73.89;98949.44;4970119;28;20039;-43
2022/09/02 01:27:40;;;;;;;2.55;0.20;;;;;;;8.97;73.72;98917.19;4970386;28;20541;-45
2022/09/02 01:30:08;;;;;;;2.55;0.20;;;;;;;9.06;73.65;98947.91;4970009;28;20042;-45
2022/09/02 01:32:34;;;;;;;1.13;0.30;;;;;;;9.09;73.70;98950.41;4968167;28;20169;-46
2022/09/02 01:35:00;;;;;;;1.40;0.30;;;;;;;9.11;73.43;98941.66;4970029;28;20133;-43
2022/09/02 01:37:26;;;;;;;0.30;0.20;;;;;;;9.21;73.54;98949.94;4968925;28;20047;-44
2022/09/02 01:39:52;;;;;;;0.10;0.10;;;;;;;9.26;72.65;98953.16;4984802;28;20054;-48
2022/09/02 01:42:19;;;;;;;0.30;0.30;;;;;;;9.28;72.46;98941.81;4971233;28;20182;-46
2022/09/02 01:44:46;;;;;;;0.30;0.20;;;;;;;9.07;71.44;98908.13;4968841;28;20074;-43
2022/09/02 01:47:22;;;;;;;0.40;0.30;;;;;;;9.23;71.51;98956.72;4965406;28;20150;-43
2022/09/02 01:49:48;;;;;;;0.50;0.20;;;;;;;9.06;70.57;98930.63;4981914;28;20038;-43
2022/09/02 01:52:16;;;;;;;1.98;0.35;;;;;;;9.28;70.63;98952.19;4969397;28;20038;-47
2022/09/02 01:54:43;;;;;;;0.13;0.13;;;;;;;9.32;70.63;98965.88;4969904;28;20054;-44
2022/09/02 01:57:09;;;;;;;0.28;0.20;;;;;;;9.21;69.74;98957.69;4953869;28;20641;-44
2022/09/02 01:59:37;;;;;;;0.30;0.20;;;;;;;9.20;70.10;98956.00;4948490;28;20046;-46
2022/09/02 02:02:03;;;;;;;0.20;0.20;;;;;;;9.29;69.68;98948.69;4967286;28;20038;-44
2022/09/02 02:04:31;;;;;;;1.33;0.25;;;;;;;8.98;68.90;98911.09;4950414;28;20047;-42
2022/09/02 02:06:58;;;;;;;0.88;0.38;;;;;;;9.21;68.79;98963.72;4951600;28;20134;-43
2022/09/02 02:09:24;;;;;;;0.40;0.20;;;;;;;9.21;68.85;98968.06;4953247;28;20130;-46
2022/09/02 02:11:51;;;;;;;1.48;1.13;;;;;;;9.30;68.39;98962.50;4969263;28;20054;-44
2022/09/02 02:14:18;;;;;;;0.20;0.20;;;;;;;9.22;68.08;98933.44;4969373;28;20065;-44
2022/09/02 02:16:48;;;;;;;0.20;0.20;;;;;;;9.47;68.25;98964.41;4965560;28;20523;-49
2022/09/02 02:19:14;;;;;;;0.43;0.20;;;;;;;9.26;67.47;98930.66;4960017;28;20077;-46
2022/09/02 02:21:40;;;;;;;2.05;1.38;;;;;;;9.33;67.47;98958.03;4968756;28;20047;-44
2022/09/02 02:24:07;;;;;;;0.40;0.28;;;;;;;9.37;67.14;98958.75;4966307;28;20050;-44
2022/09/02 02:26:33;;;;;;;0.13;0.10;;;;;;;9.20;66.93;98958.59;4972462;28;20054;-44
2022/09/02 02:29:00;;;;;;;0.30;0.30;;;;;;;9.20;66.99;98964.63;4967455;28;20054;-44
2022/09/02 02:31:27;;;;;;;1.10;0.20;;;;;;;9.22;67.19;98968.00;4963827;28;20047;-43
2022/09/02 02:33:54;;;;;;;0.20;0.20;;;;;;;9.21;66.85;98970.66;4968856;28;20355;-47
2022/09/02 02:36:20;;;;;;;0.10;0.10;;;;;;;9.18;67.04;98973.38;4969352;28;20042;-49
2022/09/02 02:38:47;;;;;;;0.15;0.10;;;;;;;9.12;66.95;98974.47;4948576;28;20071;-45
2022/09/02 02:41:14;;;;;;;1.65;0.20;;;;;;;9.11;67.10;98977.94;4949944;28;20059;-46
2022/09/02 02:43:41;;;;;;;0.38;0.17;;;;;;;9.16;67.52;98980.38;4944982;28;20042;-47
2022/09/02 02:46:08;;;;;;;0.20;0.20;;;;;;;9.19;67.24;98985.44;4965916;28;20601;-48
2022/09/02 02:48:35;;;;;;;0.50;0.20;;;;;;;9.24;67.85;98978.31;4984989;28;20157;-45
2022/09/02 02:51:02;;;;;;;0.17;0.17;;;;;;;9.26;67.78;98979.94;4969219;28;20400;-47
2022/09/02 02:53:30;;;;;;;0.50;0.25;;;;;;;9.25;67.88;98974.81;4967972;28;20506;-44
2022/09/02 02:55:58;;;;;;;0.20;0.20;;;;;;;9.20;68.19;98972.41;4967699;28;20087;-44
2022/09/02 02:58:24;;;;;;;0.28;0.25;;;;;;;9.13;69.39;98983.09;4969046;28;20039;-48
2022/09/02 03:00:50;;;;;;;0.40;0.25;;;;;;;9.13;69.23;98986.53;4952837;28;20047;-44
2022/09/02 03:03:18;;;;;;;0.70;0.37;;;;;;;8.96;70.74;98988.06;4968888;28;20039;-49
2022/09/02 03:05:48;;;;;;;1.17;0.30;;;;;;;8.89;71.65;99000.44;4968975;28;20344;-50
2022/09/02 03:08:18;;;;;;;0.35;0.32;;;;;;;8.66;72.47;98971.97;4949050;28;20860;-44
2022/09/02 03:10:45;;;;;;;0.30;0.30;;;;;;;8.88;72.56;99003.94;4969511;28;20054;-44
2022/09/02 03:13:11;;;;;;;0.13;0.13;;;;;;;8.89;72.47;99008.22;4969253;28;20039;-50
2022/09/02 03:15:38;;;;;;;1.63;0.30;;;;;;;8.85;72.68;99012.66;4967438;28;20054;-48
2022/09/02 03:18:05;;;;;;;0.40;0.25;;;;;;;8.73;73.04;99001.94;4967759;28;20054;-44
2022/09/02 03:20:31;;;;;;;0.40;0.40;;;;;;;8.61;73.13;98987.69;4968518;28;20043;-49
2022/09/02 03:23:03;;;;;;;0.55;0.30;;;;;;;8.62;73.92;98983.34;4955652;28;20074;-43
2022/09/02 03:25:31;;;;;;;0.30;0.30;;;;;;;8.85;72.86;99015.25;4956126;28;20426;-44
2022/09/02 03:28:00;;;;;;;0.10;0.10;;;;;;;8.85;72.90;99012.66;4972534;28;20124;-44
2022/09/02 03:30:29;;;;;;;0.10;0.10;;;;;;;8.87;73.16;99005.69;4971517;28;20074;-48
2022/09/02 03:32:58;;;;;;;0.38;0.25;;;;;;;8.88;72.99;99009.13;4977991;28;20471;-43
2022/09/02 03:35:26;;;;;;;0.30;0.30;;;;;;;8.86;72.99;99016.94;4971668;28;20051;-43
2022/09/02 03:37:52;;;;;;;0.20;0.20;;;;;;;8.95;72.83;99015.75;4970373;28;20042;-45
2022/09/02 03:40:21;;;;;;;0.20;0.20;;;;;;;8.93;72.83;99012.38;4973084;28;20058;-44
2022/09/02 03:42:48;;;;;;;0.50;0.30;;;;;;;8.99;72.88;99014.75;4953724;28;20053;-49
2022/09/02 03:45:15;;;;;;;0.52;0.20;;;;;;;9.03;72.81;99024.09;4979014;28;20411;-44
2022/09/02 03:47:49;;;;;;;3.10;0.50;;;;;;;9.05;73.21;99018.84;4973149;28;20047;-45
2022/09/02 03:50:19;;;;;;;0.52;0.30;;;;;;;9.16;72.52;99011.50;4957151;28;20035;-45
2022/09/02 03:52:47;;;;;;;1.10;0.13;;;;;;;9.16;72.62;99022.69;4969039;28;20098;-45
2022/09/02 03:55:13;;;;;;;1.08;0.30;;;;;;;9.10;73.05;99025.56;4972294;28;20070;-43
2022/09/02 03:57:38;;;;;;;0.50;0.30;;;;;;;9.16;72.76;99017.50;4972956;28;20066;-47
2022/09/02 04:00:10;;;;;;;0.20;0.20;;;;;;;8.98;72.90;99014.81;4971889;28;20039;-45
2022/09/02 04:02:40;;;;;;;0.65;0.30;;;;;;;9.14;72.93;99032.31;4973327;28;21123;-44
2022/09/02 04:05:11;;;;;;;;;;;;;;;9.21;72.66;99048.47;4971397;28;20042;-43
2022/09/02 04:07:39;;;;;;;1.75;0.50;;;;;;;9.17;72.22;99032.16;4949798;28;19978;-43
2022/09/02 04:10:07;;;;;;;0.88;0.30;;;;;;;9.18;72.12;99035.59;4955357;28;20046;-44
2022/09/02 04:12:36;;;;;;;0.22;0.10;;;;;;;9.15;72.11;99040.94;4943403;28;20093;-44
2022/09/02 04:15:05;;;;;;;0.38;0.20;;;;;;;9.13;72.44;99040.97;4971170;28;20043;-47
2022/09/02 04:17:31;;;;;;;1.57;0.40;;;;;;;9.17;72.73;99047.72;4970293;28;20043;-44
2022/09/02 04:19:57;;;;;;;0.47;0.30;;;;;;;9.32;72.19;99046.28;4970141;28;20043;-44
2022/09/02 04:22:23;;;;;;;0.20;0.20;;;;;;;9.46;71.67;99037.97;4972563;28;20042;-44
2022/09/02 04:24:49;;;;;;;0.38;0.30;;;;;;;9.38;71.64;99047.78;4951182;28;20043;-44
2022/09/02 04:27:15;;;;;;;1.55;0.50;;;;;;;9.38;71.65;99053.81;4963493;28;20047;-45
2022/09/02 04:29:44;;;;;;;1.77;0.30;;;;;;;9.38;71.33;99048.63;4954728;28;20039;-44
2022/09/02 04:32:10;;;;;;;0.50;0.30;;;;;;;9.43;71.23;99059.66;4971348;28;20055;-45
2022/09/02 04:34:37;;;;;;;0.20;0.20;;;;;;;9.34;71.57;99028.91;4954424;28;20126;-47
2022/09/02 04:37:03;;;;;;;2.38;0.30;;;;;;;9.44;71.05;99050.16;4953445;28;20086;-44
2022/09/02 04:39:29;;;;;;;0.47;0.30;;;;;;;9.39;71.74;99055.50;4939029;28;20070;-46
2022/09/02 04:41:56;;;;;;;0.82;0.30;;;;;;;9.36;72.04;99058.25;4970324;28;20054;-45
2022/09/02 04:44:24;;;;;;;0.43;0.20;;;;;;;9.31;72.27;99035.09;4954979;28;20038;-45
2022/09/02 04:46:51;;;;;;;0.98;0.30;;;;;;;9.61;72.10;99068.47;4971309;28;20039;-48
2022/09/02 04:49:20;;;;;;;0.68;0.40;;;;;;;9.66;71.98;99069.16;4947401;28;20466;-44
2022/09/02 04:51:50;;;;;;;0.82;0.40;;;;;;;9.59;73.03;99067.69;4969710;28;20503;-47
2022/09/02 04:54:16;;;;;;;2.65;0.50;;;;;;;9.76;72.68;99071.31;4970326;28;20073;-44
2022/09/02 04:56:46;;;;;;;1.08;0.45;;;;;;;9.73;72.95;99076.59;4970601;28;20081;-51
2022/09/02 04:59:13;;;;;;;1.15;0.60;;;;;;;9.48;74.02;99077.66;4970403;28;20518;-47
2022/09/02 05:01:46;;;;;;;1.05;0.60;;;;;;;9.49;75.15;99087.13;4955077;28;20050;-43
2022/09/02 05:04:18;;;;;;;1.35;0.60;;;;;;;9.55;75.34;99089.47;4969079;28;20430;-45
2022/09/02 05:06:49;;;;;;;1.58;0.50;;;;;;;9.57;75.95;99085.09;4970361;28;20429;-46
2022/09/02 05:09:18;;;;;;;3.00;0.40;;;;;;;9.48;76.35;99088.03;4952101;28;20046;-45
2022/09/02 05:11:50;;;;;;;0.50;0.40;;;;;;;9.48;77.51;99093.22;4950526;28;20057;-47
2022/09/02 05:14:19;;;;;;;0.65;0.40;;;;;;;9.49;77.03;99087.97;4968071;28;20129;-46
2022/09/02 05:16:46;;;;;;;0.77;0.52;;;;;;;9.43;77.36;99095.16;4969674;28;20050;-44
2022/09/02 05:19:15;;;;;;;0.47;0.47;;;;;;;9.62;76.39;99096.97;4969609;28;20035;-45
2022/09/02 05:21:45;;;;;;;3.13;0.68;;;;;;;9.71;75.98;99100.94;4969780;28;20481;-46
2022/09/02 05:24:19;;;;;;;0.20;0.20;;;;;;;9.82;75.71;99101.38;4968763;28;20088;-46
2022/09/02 05:26:46;;;;;;;0.82;0.60;;;;;;;9.84;75.10;99104.72;4968864;28;20046;-45
2022/09/02 05:29:13;;;;;;;0.20;0.20;;;;;;;9.71;75.30;99101.78;4966458;28;20102;-45
2022/09/02 05:31:40;;;;;;;1.38;0.50;;;;;;;9.50;75.30;99107.84;4977556;28;20043;-50
2022/09/02 05:34:10;;;;;;;0.40;0.40;;;;;;;9.32;74.62;99078.25;4970002;28;20510;-46
2022/09/02 05:36:36;;;;;;;1.00;0.30;;;;;;;9.50;74.93;99102.66;4969764;28;20514;-49
2022/09/02 05:39:04;;;;;;;1.48;0.40;;;;;;;9.44;75.37;99110.66;4968656;28;20041;-46
2022/09/02 05:41:31;;;;;;;1.53;0.40;;;;;;;9.29;75.06;99096.53;4952625;28;20530;-45
2022/09/02 05:44:02;;;;;;;0.53;0.40;;;;;;;9.45;75.12;99114.94;4968832;28;20290;-45
2022/09/02 05:46:28;;;;;;;1.10;0.40;;;;;;;9.12;75.20;99072.16;4970477;28;20305;-47
2022/09/02 05:49:05;;;;;;;0.50;0.40;;;;;;;9.28;75.54;99114.75;4970134;28;20065;-46
2022/09/02 05:51:45;;;;;;;0.73;0.40;;;;;;;9.44;75.20;99115.84;4969588;28;20039;-46
2022/09/02 05:54:20;;;;;;;1.55;0.60;;;;;;;9.38;75.52;99110.91;4926682;28;20051;-49
2022/09/02 05:56:50;;;;;;;2.00;0.60;;;;;;;9.30;75.68;99076.63;4953613;28;20407;-47
2022/09/02 05:59:20;;;;;;;5.25;0.88;;;;;;;9.76;75.11;99122.38;4968425;28;20483;-47
2022/09/02 06:01:46;;;;;;;0.90;0.45;;;;;;;9.75;74.57;99105.09;4957243;28;20050;-47
2022/09/02 06:04:13;;;;;;;4.38;0.45;;;;;;;9.82;73.80;99126.47;4948173;28;20043;-46
2022/09/02 06:06:40;;;;;;;2.05;0.40;;;;;;;9.88;73.77;99126.25;4969399;28;20043;-46
2022/09/02 06:09:11;;;;;;;0.55;0.25;;;;;;;9.98;73.42;99128.41;4954181;28;20031;-47
2022/09/02 06:11:39;;;;;;;0.50;0.30;;;;;;;9.68;73.05;99122.66;4935759;28;20039;-47
2022/09/02 06:14:07;;;;;;;4.60;0.60;;;;;;;9.58;73.63;99121.34;4955427;28;20085;-44
2022/09/02 06:16:37;;;;;;;1.05;0.50;;;;;;;9.82;73.08;99129.06;4967310;28;20065;-49
2022/09/02 06:19:05;;;;;;;1.58;0.68;;;;;;;9.91;72.33;99126.09;4968960;28;20043;-49
2022/09/02 06:21:32;;;;;;;0.82;0.50;;;;;;;9.89;72.12;99130.53;4950083;28;20043;-50
2022/09/02 06:23:59;;;;;;;0.80;0.60;;;;;;;10.02;71.57;99140.34;4966839;28;20134;-46
2022/09/02 06:26:26;;;;;;;0.60;0.50;;;;;;;10.06;70.37;99151.44;4969531;28;20173;-46
2022/09/02 06:28:52;;;;;;;0.65;0.45;;;;;;;9.92;70.19;99146.81;4967729;28;20584;-50
2022/09/02 06:31:21;;;;;;;0.40;0.30;;;;;;;9.90;70.40;99152.97;4968018;28;20133;-46
2022/09/02 06:33:51;;;;;;;3.38;0.52;;;;;;;9.82;70.91;99149.84;4968710;28;20062;-45
2022/09/02 06:36:17;;;;;;;1.40;0.50;;;;;;;9.98;70.88;99156.13;4957023;28;20039;-46
2022/09/02 06:38:47;;;;;;;2.08;0.20;;;;;;;9.79;70.28;99130.03;4967358;28;20073;-47
2022/09/02 06:41:17;;;;;;;0.85;0.30;;;;;;;9.81;69.80;99142.94;4952488;28;20435;-48
2022/09/02 06:43:44;;;;;;;2.20;0.50;;;;;;;10.09;69.90;99161.72;4969117;28;20043;-47
2022/09/02 06:46:19;;;;;;;1.33;0.40;;;;;;;10.28;69.57;99169.63;4968512;28;20541;-46
2022/09/02 06:48:49;;;;;;;4.13;0.60;;;;;;;10.33;69.32;99183.28;4966221;28;20505;-45
2022/09/02 06:51:29;;;;;;;1.30;0.30;;;;;;;10.41;68.68;99178.63;4952034;28;20039;-50
2022/09/02 06:53:58;;;;;;;0.47;0.30;;;;;;;10.47;69.37;99197.38;4975361;28;20106;-48
2022/09/02 06:56:27;;;;;;;0.20;0.20;;;;;;;10.31;68.11;99185.91;4949775;28;20051;-44
2022/09/02 06:58:53;;;;;;;2.08;0.68;;;;;;;10.23;68.67;99187.16;4954655;28;20644;-47
2022/09/02 07:01:24;;;;;;;0.63;0.30;;;;;;;10.60;68.42;99201.16;4955969;28;20100;-43
2022/09/02 07:06:36;;;;;;;0.77;0.30;;;;;;;10.40;68.62;99195.97;4958309;28;20050;-43
2022/09/02 07:09:05;;;;;;;0.93;0.40;;;;;;;10.46;68.78;99190.50;4954762;28;20038;-42
2022/09/02 07:11:31;;;;;;;2.28;1.40;;;;;;;10.89;68.50;99204.25;4972864;28;20434;-44
2022/09/02 07:14:01;;;;;;;0.98;0.50;;;;;;;11.92;65.91;99197.00;4971983;28;20050;-45
2022/09/02 07:16:28;;;;;;;0.70;0.40;;;;;;;12.49;62.63;99190.69;4940439;28;20045;-47
2022/09/02 07:18:56;;;;;;;1.55;0.35;;;;;;;13.45;59.48;99199.59;4970361;28;20067;-48
2022/09/02 07:21:23;;;;;;;3.50;0.73;;;;;;;12.74;60.23;99191.16;4971972;28;20054;-50
2022/09/02 07:23:49;;;;;;;1.15;0.52;;;;;;;12.61;60.66;99208.31;4970411;28;20525;-47
2022/09/02 07:26:17;;;;;;;0.90;0.70;;;;;;;12.69;59.63;99187.09;4955023;28;20079;-46
2022/09/02 07:28:45;;;;;;;1.83;0.50;;;;;;;12.58;59.38;99192.00;4967861;28;20046;-52
2022/09/02 07:31:14;;;;;;;2.50;0.55;;;;;;;12.24;59.83;99201.50;4955412;28;20085;-45
2022/09/02 07:33:41;;;;;;;1.85;0.40;;;;;;;11.93;61.07;99201.28;4955176;28;20046;-47
2022/09/02 07:36:09;;;;;;;1.08;0.70;;;;;;;11.75;61.08;99176.94;4955496;28;20502;-45
2022/09/02 07:38:36;;;;;;;1.25;0.50;;;;;;;12.15;60.03;99199.31;4970211;28;20070;-44
2022/09/02 07:41:03;;;;;;;0.68;0.50;;;;;;;12.00;60.48;99201.81;4941540;28;20061;-45
2022/09/02 07:43:33;;;;;;;0.95;0.45;;;;;;;14.05;57.33;99212.84;4953247;28;20049;-46
2022/09/02 07:46:00;;;;;;;1.70;0.63;;;;;;;16.17;51.44;99208.78;4970089;28;20054;-48
2022/09/02 07:48:28;;;;;;;1.80;1.15;;;;;;;17.99;47.73;99186.56;4954135;28;20031;-46
2022/09/02 07:50:55;;;;;;;1.52;0.60;;;;;;;17.63;46.11;99192.66;4970319;28;20426;-46
2022/09/02 07:53:22;;;;;;;1.60;1.00;;;;;;;16.84;48.25;99199.94;4970285;28;20510;-44
2022/09/02 07:55:48;;;;;;;3.03;0.55;;;;;;;16.08;49.33;99205.78;4967747;28;20054;-46
2022/09/02 07:58:16;;;;;;;2.97;0.85;;;;;;;15.47;50.61;99210.56;4969418;28;20043;-46
2022/09/02 08:00:42;;;;;;;2.53;0.40;;;;;;;15.39;50.65;99215.44;4966736;28;20078;-45
2022/09/02 08:03:10;;;;;;;2.47;0.60;;;;;;;14.59;52.60;99214.13;4951631;28;20049;-46
2022/09/02 08:05:43;;;;;;;1.25;0.75;;;;;;;14.37;52.79;99221.53;4969813;28;20422;-48
2022/09/02 08:08:10;;;;;;;7.53;0.93;;;;;;;14.59;52.93;99219.38;4973022;28;20097;-49
2022/09/02 08:10:36;;;;;;;1.45;0.60;;;;;;;14.75;53.39;99228.00;4975559;28;20122;-44
2022/09/02 08:13:05;;;;;;;4.07;0.90;;;;;;;14.58;54.09;99232.53;4970815;28;20066;-47
2022/09/02 08:15:32;;;;;;;1.92;1.00;;;;;;;14.71;54.98;99243.94;4972015;28;20057;-46
2022/09/02 08:17:58;;;;;;;2.70;0.55;;;;;;;16.80;51.90;99238.66;4971462;28;20047;-43
2022/09/02 08:20:24;;;;;;;2.10;0.82;;;;;;;16.10;51.54;99222.28;4971630;28;20107;-44
2022/09/02 08:22:50;;;;;;;1.50;0.47;;;;;;;14.92;53.01;99234.00;4972324;28;20070;-44
2022/09/02 08:25:17;;;;;;;1.70;0.52;;;;;;;14.30;54.07;99215.75;4964361;28;20077;-45
2022/09/02 08:27:44;;;;;;;3.10;0.60;;;;;;;13.69;54.97;99213.13;4960762;28;20051;-47
2022/09/02 08:30:11;;;;;;;1.90;0.50;;;;;;;13.56;55.45;99238.19;4964603;28;20035;-47
2022/09/02 08:32:38;;;;;;;1.27;0.73;;;;;;;13.05;56.63;99237.38;4964449;28;20137;-46
2022/09/02 08:35:05;;;;;;;0.30;0.30;;;;;;;12.61;56.96;99237.00;4968471;28;20043;-43
2022/09/02 08:37:32;;;;;;;0.95;0.60;;;;;;;12.45;57.61;99233.50;4961536;28;20043;-45
2022/09/02 08:39:58;;;;;;;2.15;0.40;;;;;;;12.64;57.20;99239.47;4965008;28;20084;-44
2022/09/02 08:42:31;;;;;;;0.98;0.28;;;;;;;12.46;57.58;99245.59;4969114;28;20039;-44
2022/09/02 08:45:03;;;;;;;1.77;0.40;;;;;;;12.39;58.68;99257.25;4970019;28;20050;-47
2022/09/02 08:47:30;;;;;;;0.77;0.47;;;;;;;12.48;57.47;99214.22;4983109;28;20068;-43
2022/09/02 08:49:59;;;;;;;3.40;0.43;;;;;;;12.79;57.00;99256.13;4951832;28;20054;-44
2022/09/02 08:52:25;;;;;;;4.07;0.85;;;;;;;12.72;57.36;99260.78;4960297;28;20493;-48
2022/09/02 08:54:55;;;;;;;1.50;0.82;;;;;;;12.60;57.85;99269.25;4979099;28;20137;-46
2022/09/02 08:57:26;;;;;;;4.15;0.45;;;;;;;12.44;58.26;99263.09;4946268;28;20038;-45
2022/09/02 08:59:57;;;;;;;2.70;1.10;;;;;;;12.08;60.94;99273.50;4968252;28;20046;-47
2022/09/02 09:02:46;;;;;;;0.55;0.38;;;;;;;12.09;62.85;99290.00;4946296;28;20566;-49
2022/09/02 09:05:32;;;;;;;0.90;0.47;;;;;;;12.30;63.95;99294.16;4963990;28;20046;-47
2022/09/02 09:08:17;;;;;;;1.38;0.60;;;;;;;12.64;64.42;99299.47;4962653;28;20047;-58
2022/09/02 09:11:02;;;;;;;0.63;0.60;;;;;;;14.64;61.99;99302.81;4968232;28;20042;-45
2022/09/02 09:13:39;;;;;;;1.60;1.02;;;;;;;16.65;57.00;99297.44;4964190;28;20043;-63
2022/09/02 09:16:15;;;;;;;3.75;1.95;;;;;;;18.93;49.70;99305.09;4963297;28;20133;-43
2022/09/02 09:18:50;;;;;;;4.75;0.80;;;;;;;19.56;47.18;99290.66;4952730;28;20122;-48
2022/09/02 09:21:17;;;;;;;0.60;0.45;;;;;;;19.40;45.81;99298.88;4965214;28;20047;-49
2022/09/02 09:23:43;;;;;;;3.22;0.40;;;;;;;17.59;48.47;99303.34;4982421;28;20149;-51
2022/09/02 09:26:13;;;;;;;3.05;0.80;;;;;;;16.03;50.95;99302.28;4967387;28;20053;-48
2022/09/02 09:28:41;;;;;;;2.58;1.00;;;;;;;15.50;52.95;99302.91;4966749;28;20379;-46
2022/09/02 09:31:13;;;;;;;0.50;0.43;;;;;;;16.68;50.34;99262.28;4963611;28;20137;-47
2022/09/02 09:33:40;;;;;;;2.33;0.60;;;;;;;16.04;50.60;99306.59;4969488;28;20118;-50
2022/09/02 09:36:08;;;;;;;4.03;1.55;;;;;;;15.92;51.07;99309.97;4938949;28;20074;-49
2022/09/02 09:38:37;;;;;;;1.25;0.60;;;;;;;15.53;51.93;99312.41;4959209;28;20059;-48
2022/09/02 09:41:16;;;;;;;;;;;;;;;14.80;53.15;99314.09;4969349;28;20518;-46
2022/09/02 09:43:42;;;;;;;;;;;;;;;14.80;53.53;99319.34;4968685;28;19918;-48
2022/09/02 09:46:28;;;;;;;3.88;0.80;;;;;;;17.68;48.21;99324.63;4964157;28;20301;-50
2022/09/02 09:48:54;;;;;;;1.20;0.73;;;;;;;18.82;43.88;99320.88;4966898;28;20539;-48
2022/09/02 09:51:20;;;;;;;3.15;0.32;;;;;;;18.70;43.43;99327.88;4966047;28;20050;-46
2022/09/02 09:53:46;;;;;;;0.52;0.40;;;;;;;17.88;45.16;99335.56;4964917;28;20039;-49
2022/09/02 09:56:15;;;;;;;19.67;8.02;;;;;;;16.92;47.89;99334.16;4967743;28;20057;-49
2022/09/02 09:58:44;;;;;;;6.90;1.85;;;;;;;16.21;49.02;99344.03;4957113;28;20121;-45
2022/09/02 10:01:13;;;;;;;1.48;0.70;;;;;;;16.13;50.80;99343.66;4953886;28;20043;-45
2022/09/02 10:03:51;;;;;;;13.20;4.72;;;;;;;17.71;50.82;99331.47;4978374;28;20396;-44
2022/09/02 10:06:21;;;;;;;6.78;2.33;;;;;;;19.05;49.24;99339.25;4964753;28;20034;-45
2022/09/02 10:09:00;;;;;;;0.32;0.30;;;;;;;18.51;49.34;99338.88;4960596;28;20514;-45
2022/09/02 10:11:31;;;;;;;3.55;1.63;;;;;;;17.63;50.38;99334.63;4967378;28;20046;-45
2022/09/02 10:14:05;;;;;;;1.45;0.60;;;;;;;17.21;50.06;99346.22;4963674;28;20042;-44
2022/09/02 10:16:41;;;;;;;0.55;0.38;;;;;;;19.18;45.25;99341.84;4966608;28;20552;-48
2022/09/02 10:19:38;;;;;;;0.20;0.20;;;;;;;19.44;41.97;99353.03;4966428;28;20042;-49
2022/09/02 10:22:36;;;;;;;0.45;0.45;;;;;;;21.16;39.15;99348.13;4962325;28;20059;-48
2022/09/02 10:25:09;;;;;;;1.33;0.67;;;;;;;21.83;37.22;99343.25;4969237;28;20051;-49
2022/09/02 10:27:45;;;;;;;1.25;0.50;;;;;;;22.01;37.24;99351.44;4968250;28;20061;-47
2022/09/02 10:30:20;;;;;;;0.50;0.47;;;;;;;22.51;35.90;99344.34;4973153;28;20038;-48
2022/09/02 10:33:01;;;;;;;1.02;0.80;;;;;;;21.52;37.33;99345.03;4977033;28;20053;-47
2022/09/02 10:35:43;;;;;;;0.43;0.38;;;;;;;20.92;37.06;99342.19;4965712;28;20053;-44
2022/09/02 10:38:30;;;;;;;1.13;0.32;;;;;;;19.67;37.82;99353.97;4963808;28;20046;-49
2022/09/02 10:41:33;;;;;;;1.23;0.35;;;;;;;18.79;39.41;99371.16;4962558;28;20054;-47
2022/09/02 10:44:18;;;;;;;2.45;0.65;;;;;;;17.84;42.70;99389.31;4965608;28;20042;-45
2022/09/02 10:47:00;;;;;;;6.20;1.52;;;;;;;17.30;47.36;99373.66;4965830;28;20053;-44
2022/09/02 10:49:46;;;;;;;7.82;1.63;;;;;;;16.67;50.31;99384.81;4964526;28;20422;-43
2022/09/02 10:52:21;;;;;;;2.38;0.75;;;;;;;16.04;53.11;99393.13;4955890;28;20063;-50
2022/09/02 10:55:05;;;;;;;10.93;1.25;;;;;;;15.54;56.51;99400.56;4969393;28;20046;-45
2022/09/02 10:57:41;;;;;;;17.52;4.93;;;;;;;15.11;60.26;99387.31;4966866;28;20534;-48
2022/09/02 11:00:15;;;;;;;7.50;1.65;;;;;;;14.77;61.98;99391.00;4953446;28;20496;-50
2022/09/02 11:02:47;;;;;;;3.55;1.13;;;;;;;14.45;61.64;99399.78;4965682;28;20419;-50
2022/09/02 11:05:20;;;;;;;1.42;0.60;;;;;;;14.79;61.70;99385.69;4967457;28;20138;-50
2022/09/02 11:07:50;;;;;;;2.97;0.60;;;;;;;14.88;62.10;99398.25;4964644;28;20039;-49
2022/09/02 11:10:21;;;;;;;1.77;1.17;;;;;;;14.94;62.00;99400.53;4959365;28;20045;-52
2022/09/02 11:13:04;;;;;;;2.80;1.42;;;;;;;14.83;62.57;99418.59;4966211;28;20137;-45
2022/09/02 11:15:44;;;;;;;4.93;1.00;;;;;;;15.39;61.85;99417.13;4967729;28;20055;-47
2022/09/02 11:18:22;;;;;;;16.60;8.95;;;;;;;16.00;60.72;99411.75;4960948;28;20537;-47
2022/09/02 11:20:59;;;;;;;4.00;1.42;;;;;;;17.65;58.22;99416.84;4966851;28;20057;-47
2022/09/02 11:23:49;;;;;;;3.15;1.55;;;;;;;19.92;52.52;99417.06;4968304;28;20035;-46
2022/09/02 11:26:32;;;;;;;1.38;0.70;;;;;;;20.10;51.13;99428.00;4967219;28;20047;-49
2022/09/02 11:29:09;;;;;;;2.20;0.40;;;;;;;18.94;51.76;99412.19;4965182;28;20038;-46
2022/09/02 11:32:04;;;;;;;5.72;1.40;;;;;;;18.12;52.78;99428.53;4966072;28;20133;-48
2022/09/02 11:34:35;;;;;;;2.30;0.77;;;;;;;17.50;53.04;99422.25;4946970;28;20800;-46
2022/09/02 11:37:08;;;;;;;9.00;2.55;;;;;;;17.90;51.70;99415.22;4951923;28;20046;-47
2022/09/02 11:39:39;;;;;;;1.05;0.40;;;;;;;17.15;51.64;99432.47;4958295;28;20053;-47
2022/09/02 11:42:26;;;;;;;16.35;2.92;;;;;;;17.75;52.59;99435.47;4965482;28;20050;-43
2022/09/02 11:45:14;;;;;;;11.88;1.92;;;;;;;18.81;50.55;99435.06;4967816;28;20145;-47
2022/09/02 11:47:42;;;;;;;13.55;2.40;;;;;;;18.42;50.55;99428.22;4968933;28;20122;-46
2022/09/02 11:50:39;;;;;;;11.98;1.48;;;;;;;20.48;47.47;99431.16;4968717;28;20463;-49
2022/09/02 11:53:16;;;;;;;36.42;4.43;;;;;;;20.93;47.47;99431.09;4971167;28;20523;-44
2022/09/02 11:55:49;;;;;;;3.13;0.90;;;;;;;20.90;47.56;99426.88;4967103;28;20129;-46